Terminal Aerodrome Forecast
Issued by NWS

Home | Current Version | Previous Version | Text Only | Print | Product List | Glossary On
Versions: 1 2 3 4 5 6 7 8 9 10 11 12 13 14 15 16 17 18 19 20 21
841
FTUS46 KSEW 080801 AAA
TAFOLM
TAF AMD
KOLM 080801Z 0808/0906 00000KT P6SM SCT250
      TEMPO 0808/0811 2SM BR SCT004
     FM081100 00000KT 1/4SM FG VV001
     FM081900 VRB03KT 2SM BR BKN003
     FM082100 03004KT P6SM SKC
     FM090500 04004KT 3SM BR SCT005=

USA.gov is the U.S. government's official web portal to all federal, state and local government web resources and services.